createdAt,value
2019-05-02T00:02:36.922Z,69.23
2019-05-02T00:06:57.595Z,69.05
2019-05-02T00:11:18.633Z,69.05
2019-05-02T00:15:39.471Z,69.25
2019-05-02T00:20:00.017Z,69.13
2019-05-02T00:24:20.683Z,69.40
2019-05-02T00:28:42.978Z,69.76
2019-05-02T00:33:03.610Z,70.04
2019-05-02T00:37:26.546Z,69.58
2019-05-02T00:41:46.665Z,69.58
2019-05-02T00:46:07.322Z,69.37
2019-05-02T00:50:28.379Z,69.30
2019-05-02T00:54:49.247Z,69.39
2019-05-02T00:59:09.443Z,69.58
2019-05-02T01:03:32.004Z,69.74
2019-05-02T01:07:56.152Z,69.63
2019-05-02T01:12:25.809Z,70.44
2019-05-02T01:16:37.210Z,70.50
2019-05-02T01:21:02.395Z,70.60
2019-05-02T01:25:20.744Z,70.99
2019-05-02T01:29:41.159Z,70.47
2019-05-02T01:34:02.221Z,71.21
2019-05-02T01:38:26.426Z,70.84
2019-05-02T01:42:49.107Z,71.05
2019-05-02T01:47:07.091Z,71.34
2019-05-02T01:51:27.743Z,71.39
2019-05-02T01:55:52.054Z,70.83
2019-05-02T02:00:11.506Z,71.23
2019-05-02T02:08:47.827Z,71.54
2019-05-02T02:13:09.093Z,71.41
2019-05-02T02:17:29.272Z,72.60
2019-05-02T02:21:49.476Z,72.02
2019-05-02T02:26:11.917Z,72.42
2019-05-02T02:30:32.448Z,72.26
2019-05-02T02:34:52.596Z,72.17
2019-05-02T02:39:14.984Z,72.23
2019-05-02T02:43:35.584Z,72.42
2019-05-02T02:48:00.022Z,72.45
2019-05-02T02:52:18.139Z,72.19
2019-05-02T02:56:40.703Z,72.46
2019-05-02T03:01:01.706Z,72.58
2019-05-02T03:05:26.188Z,72.64
2019-05-02T03:09:44.761Z,72.74
2019-05-02T03:14:09.275Z,72.95
2019-05-02T03:18:39.998Z,72.87
2019-05-02T03:22:50.513Z,72.94
2019-05-02T03:27:10.828Z,73.27
2019-05-02T03:31:31.710Z,73.07
2019-05-02T03:35:52.303Z,73.38
2019-05-02T03:40:12.804Z,73.38
2019-05-02T03:44:34.011Z,73.55
2019-05-02T03:49:05.513Z,73.64
2019-05-02T03:53:25.246Z,73.33
2019-05-02T03:57:42.115Z,73.69
2019-05-02T04:02:02.613Z,73.60
2019-05-02T04:06:23.939Z,73.41
2019-05-02T04:11:38.961Z,73.92
2019-05-02T04:15:54.354Z,73.87
2019-05-02T04:20:14.899Z,74.07
2019-05-02T04:24:35.906Z,73.91
2019-05-02T04:28:56.553Z,74.10
2019-05-02T04:33:17.241Z,74.00
2019-05-02T04:37:41.297Z,74.00
2019-05-02T04:42:05.439Z,74.03
2019-05-02T04:46:26.843Z,74.19
2019-05-02T04:50:44.526Z,73.96
2019-05-02T04:55:17.138Z,73.56
2019-05-02T04:59:28.461Z,73.64
2019-05-02T05:04:01.011Z,73.28
2019-05-02T05:12:41.840Z,73.45
2019-05-02T05:17:02.159Z,73.45
2019-05-02T05:21:24.719Z,73.19
2019-05-02T05:25:44.746Z,72.88
2019-05-02T05:30:11.317Z,72.72
2019-05-02T05:34:32.423Z,72.76
2019-05-02T05:38:50.556Z,72.15
2019-05-02T05:43:15.459Z,72.26
2019-05-02T05:47:33.922Z,71.61
2019-05-02T05:52:02.064Z,71.30
2019-05-02T05:56:18.151Z,71.61
2019-05-02T06:00:38.688Z,71.64
2019-05-02T06:05:03.612Z,72.05
2019-05-02T06:09:21.465Z,72.20
2019-05-02T06:13:42.869Z,71.15
2019-05-02T06:18:06.142Z,71.15
2019-05-02T06:22:26.879Z,70.88
2019-05-02T06:26:49.752Z,70.88
2019-05-02T06:31:10.230Z,70.72
2019-05-02T06:35:30.727Z,70.15
2019-05-02T06:39:51.340Z,70.15
2019-05-02T06:44:12.555Z,70.49
2019-05-02T06:48:32.894Z,69.98
2019-05-02T06:52:53.194Z,69.98
2019-05-02T06:57:14.245Z,69.79
2019-05-02T07:01:34.430Z,69.76
2019-05-02T07:05:58.813Z,69.76
2019-05-02T07:10:20.198Z,69.02
2019-05-02T07:14:39.630Z,69.02
2019-05-02T07:18:59.913Z,68.72
2019-05-02T07:23:20.661Z,68.39
2019-05-02T07:27:41.506Z,66.33
2019-05-02T07:32:02.316Z,65.95
2019-05-02T07:36:22.848Z,65.33
2019-05-02T07:40:43.292Z,64.55
2019-05-02T07:45:09.422Z,63.16
2019-05-02T07:49:32.264Z,62.74
2019-05-02T07:53:51.171Z,63.49
2019-05-02T07:58:12.083Z,63.49
2019-05-02T08:02:32.938Z,63.79
2019-05-02T08:06:53.154Z,61.53
2019-05-02T08:11:13.361Z,61.53
2019-05-02T08:15:34.408Z,62.77
2019-05-02T08:19:54.576Z,62.92
2019-05-02T08:24:15.439Z,61.79
2019-05-02T08:28:36.080Z,61.79
2019-05-02T08:32:56.945Z,59.25
2019-05-02T08:37:17.737Z,59.25
2019-05-02T08:41:38.459Z,59.06
2019-05-02T08:45:59.203Z,56.80
2019-05-02T08:50:20.234Z,55.83
2019-05-02T08:54:40.953Z,56.69
2019-05-02T08:59:01.629Z,57.17
2019-05-02T09:03:22.280Z,56.50
2019-05-02T09:07:43.363Z,57.08
2019-05-02T09:12:12.354Z,55.27
2019-05-02T09:16:29.090Z,56.00
2019-05-02T09:20:52.646Z,56.38
2019-05-02T09:25:12.639Z,54.04
2019-05-02T09:29:37.310Z,54.83
2019-05-02T09:33:55.828Z,55.27
2019-05-02T09:38:16.484Z,55.48
2019-05-02T09:42:37.183Z,55.93
2019-05-02T09:46:57.352Z,56.61
2019-05-02T09:51:18.169Z,55.80
2019-05-02T09:55:42.284Z,57.65
2019-05-02T10:00:03.724Z,56.33
2019-05-02T10:04:24.369Z,55.38
2019-05-02T10:08:46.593Z,54.08
2019-05-02T10:13:07.866Z,54.50
2019-05-02T10:17:32.211Z,53.98
2019-05-02T10:21:56.182Z,56.44
2019-05-02T10:26:20.182Z,52.62
2019-05-02T10:30:37.807Z,52.44
2019-05-02T10:34:59.018Z,54.03
2019-05-02T10:39:20.198Z,52.64
2019-05-02T10:43:42.315Z,55.11
2019-05-02T10:48:03.033Z,51.26
2019-05-02T10:52:29.635Z,52.12
2019-05-02T10:56:49.219Z,52.55
2019-05-02T11:01:09.622Z,51.67
2019-05-02T11:05:31.584Z,51.79
2019-05-02T11:09:52.633Z,50.71
2019-05-02T11:14:13.734Z,51.19
2019-05-02T11:18:42.362Z,51.81
2019-05-02T11:22:57.000Z,49.56
2019-05-02T11:27:17.812Z,51.23
2019-05-02T11:31:38.425Z,51.05
2019-05-02T11:35:59.682Z,51.08
2019-05-02T11:40:19.943Z,49.58
2019-05-02T11:44:41.829Z,49.51
2019-05-02T11:49:02.531Z,47.13
2019-05-02T11:53:28.488Z,46.03
2019-05-02T11:57:45.825Z,47.41
2019-05-02T12:02:09.386Z,45.12
2019-05-02T12:06:28.911Z,44.51
2019-05-02T12:10:51.875Z,44.86
2019-05-02T12:15:12.481Z,45.02
2019-05-02T12:19:32.777Z,47.02
2019-05-02T12:23:53.412Z,45.92
2019-05-02T12:28:14.086Z,44.73
2019-05-02T12:32:35.059Z,46.07
2019-05-02T12:36:55.979Z,43.31
2019-05-02T12:41:22.234Z,44.88
2019-05-02T12:45:39.086Z,41.51
2019-05-02T12:49:59.868Z,41.83
2019-05-02T12:54:21.986Z,41.28
2019-05-02T12:58:42.583Z,41.90
2019-05-02T13:03:03.106Z,43.73
2019-05-02T13:07:24.216Z,42.46
2019-05-02T13:11:45.965Z,43.28
2019-05-02T13:16:09.413Z,41.36
2019-05-02T13:20:34.670Z,41.51
2019-05-02T13:24:54.896Z,41.04
2019-05-02T13:29:15.409Z,39.77
2019-05-02T13:33:36.001Z,41.44
2019-05-02T13:37:56.573Z,40.96
2019-05-02T13:42:17.652Z,39.54
2019-05-02T13:46:37.917Z,42.29
2019-05-02T13:50:58.664Z,39.22
2019-05-02T13:55:19.194Z,37.90
2019-05-02T13:59:41.674Z,40.36
2019-05-02T14:04:03.726Z,40.79
2019-05-02T14:08:27.394Z,40.85
2019-05-02T14:12:47.488Z,42.42
2019-05-02T14:17:08.957Z,40.96
2019-05-02T14:21:29.720Z,41.15
2019-05-02T14:25:52.089Z,43.18
2019-05-02T14:30:13.921Z,42.35
2019-05-02T14:34:34.141Z,42.16
2019-05-02T14:38:54.938Z,40.68
2019-05-02T14:43:15.494Z,40.60
2019-05-02T14:47:36.124Z,41.29
2019-05-02T14:52:01.496Z,42.41
2019-05-02T14:56:20.043Z,43.70
2019-05-02T15:00:45.794Z,44.43
2019-05-02T15:05:03.383Z,47.38
2019-05-02T15:09:26.783Z,50.87
2019-05-02T15:13:46.572Z,52.88
2019-05-02T15:18:13.452Z,53.57
2019-05-02T15:22:37.187Z,53.87
2019-05-02T15:26:54.439Z,55.82
2019-05-02T15:31:19.066Z,55.70
2019-05-02T15:35:38.226Z,55.03
2019-05-02T15:44:23.367Z,56.32
2019-05-02T15:48:44.541Z,55.82
2019-05-02T15:53:09.674Z,55.61
2019-05-02T15:57:28.172Z,55.67
2019-05-02T16:01:48.491Z,56.92
2019-05-02T16:06:11.749Z,56.74
2019-05-02T16:10:38.575Z,57.24
2019-05-02T16:14:54.632Z,57.86
2019-05-02T16:19:27.160Z,59.46
2019-05-02T16:23:38.276Z,61.50
2019-05-02T16:28:02.668Z,64.42
2019-05-02T16:32:22.585Z,64.68
2019-05-02T16:36:43.375Z,65.59
2019-05-02T16:41:09.774Z,66.87
2019-05-02T16:45:27.769Z,68.00
2019-05-02T16:49:53.371Z,68.05
2019-05-02T16:54:12.721Z,69.07
2019-05-02T16:58:33.692Z,69.10
2019-05-02T17:02:54.513Z,69.36
2019-05-02T17:07:16.760Z,69.72
2019-05-02T17:11:37.429Z,69.56
2019-05-02T17:15:58.251Z,69.88
2019-05-02T17:20:18.441Z,69.03
2019-05-02T17:24:39.197Z,70.99
2019-05-02T17:28:59.911Z,70.52
2019-05-02T17:33:21.735Z,72.19
2019-05-02T17:37:48.662Z,71.41
2019-05-02T17:42:05.525Z,71.41
2019-05-02T17:46:26.109Z,72.77
2019-05-02T17:50:49.533Z,73.10
2019-05-02T17:55:09.408Z,73.98
2019-05-02T17:59:34.644Z,73.18
2019-05-02T18:03:52.959Z,73.18
2019-05-02T18:08:14.886Z,73.93
2019-05-02T18:12:36.012Z,73.57
2019-05-02T18:16:57.049Z,73.00
2019-05-02T18:21:24.908Z,73.00
2019-05-02T18:25:40.608Z,73.31
2019-05-02T18:30:02.310Z,73.69
2019-05-02T18:34:25.220Z,73.22
2019-05-02T18:38:45.226Z,73.21
2019-05-02T18:43:05.731Z,73.94
2019-05-02T18:47:27.950Z,73.41
2019-05-02T18:51:53.751Z,73.41
2019-05-02T18:56:12.447Z,73.85
2019-05-02T19:00:38.386Z,73.71
2019-05-02T19:04:57.990Z,74.40
2019-05-02T19:09:24.908Z,74.11
2019-05-02T19:13:42.765Z,73.91
2019-05-02T19:18:04.001Z,73.91
2019-05-02T19:22:25.447Z,73.75
2019-05-02T19:26:49.238Z,73.75
2019-05-02T19:31:08.975Z,73.79
2019-05-02T19:35:29.993Z,74.19
2019-05-02T19:39:52.469Z,74.36
2019-05-02T19:44:15.319Z,74.30
2019-05-02T19:48:37.998Z,74.07
2019-05-02T19:53:02.054Z,74.44
2019-05-02T19:57:26.258Z,74.61
2019-05-02T20:01:45.065Z,74.16
2019-05-02T20:06:06.771Z,74.34
2019-05-02T20:10:27.357Z,74.66
2019-05-02T20:14:47.787Z,74.69
2019-05-02T20:19:09.588Z,74.74
2019-05-02T20:23:33.170Z,75.16
2019-05-02T20:27:53.613Z,75.13
2019-05-02T20:32:14.068Z,74.94
2019-05-02T20:36:35.417Z,75.06
2019-05-02T20:40:57.188Z,76.07
2019-05-02T20:45:18.714Z,75.68
2019-05-02T20:49:39.569Z,76.00
2019-05-02T20:54:01.901Z,75.68
2019-05-02T20:58:22.414Z,75.38
2019-05-02T21:02:43.305Z,75.61
2019-05-02T21:07:04.097Z,75.39
2019-05-02T21:11:24.791Z,74.65
2019-05-02T21:15:45.346Z,75.18
2019-05-02T21:20:06.572Z,73.84
2019-05-02T21:24:27.562Z,72.88
2019-05-02T21:28:48.902Z,72.88
2019-05-02T21:33:35.601Z,73.56
2019-05-02T21:37:56.061Z,73.62
2019-05-02T21:42:16.814Z,72.92
2019-05-02T21:46:38.490Z,72.39
2019-05-02T21:50:59.245Z,72.62
2019-05-02T21:55:21.764Z,72.73
2019-05-02T21:59:43.582Z,73.17
2019-05-02T22:04:04.352Z,72.68
2019-05-02T22:08:24.788Z,72.72
2019-05-02T22:12:45.411Z,72.59
2019-05-02T22:17:07.204Z,73.48
2019-05-02T22:21:28.010Z,73.88
2019-05-02T22:25:48.761Z,73.21
2019-05-02T22:30:11.992Z,73.38
2019-05-02T22:34:33.003Z,72.94
2019-05-02T22:38:53.511Z,73.50
2019-05-02T22:43:14.787Z,72.88
2019-05-02T22:47:35.140Z,73.02
2019-05-02T22:51:55.636Z,74.08
2019-05-02T22:56:16.194Z,73.58
2019-05-02T23:00:37.382Z,73.64
2019-05-02T23:04:57.890Z,74.32
2019-05-02T23:09:18.534Z,74.01
2019-05-02T23:13:39.073Z,73.80
2019-05-02T23:18:01.681Z,74.01
2019-05-02T23:22:22.091Z,74.34
2019-05-02T23:26:42.983Z,73.64
2019-05-02T23:31:03.716Z,73.64
2019-05-02T23:35:24.333Z,74.31
2019-05-02T23:39:44.944Z,74.21
2019-05-02T23:44:05.524Z,74.56
2019-05-02T23:48:26.049Z,74.22
2019-05-02T23:52:46.758Z,73.50
2019-05-02T23:57:07.123Z,73.85
